createdAt,value
2019-03-12T00:00:47.303Z,1.70
2019-03-12T00:03:17.257Z,1.70
2019-03-12T00:05:46.959Z,1.70
2019-03-12T00:08:16.559Z,1.80
2019-03-12T00:10:44.298Z,1.80
2019-03-12T00:13:13.091Z,1.80
2019-03-12T00:15:40.682Z,1.80
2019-03-12T00:18:10.606Z,1.80
2019-03-12T00:20:38.143Z,1.80
2019-03-12T00:23:07.125Z,1.90
2019-03-12T00:25:36.881Z,2.00
2019-03-12T00:28:06.352Z,2.00
2019-03-12T00:30:37.967Z,2.00
2019-03-12T00:33:07.693Z,2.10
2019-03-12T00:35:35.456Z,2.10
2019-03-12T00:38:02.813Z,2.10
2019-03-12T00:40:30.680Z,2.10
2019-03-12T00:42:58.401Z,2.20
2019-03-12T00:45:27.878Z,2.20
2019-03-12T00:47:57.369Z,2.20
2019-03-12T00:50:25.422Z,2.20
2019-03-12T00:52:54.769Z,2.20
2019-03-12T00:55:22.307Z,2.20
2019-03-12T00:57:49.847Z,2.20
2019-03-12T01:00:17.691Z,2.20
2019-03-12T01:02:44.917Z,2.20
2019-03-12T01:05:14.176Z,2.20
2019-03-12T01:07:41.887Z,2.30
2019-03-12T01:10:11.371Z,2.30
2019-03-12T01:12:39.565Z,2.30
2019-03-12T01:15:09.494Z,2.30
2019-03-12T01:17:37.547Z,2.40
2019-03-12T01:20:06.730Z,2.40
2019-03-12T01:22:34.258Z,2.40
2019-03-12T01:25:01.815Z,2.50
2019-03-12T01:27:29.286Z,2.50
2019-03-12T01:29:56.917Z,2.50
2019-03-12T01:32:25.340Z,2.50
2019-03-12T01:34:52.875Z,2.50
2019-03-12T01:37:20.826Z,2.50
2019-03-12T01:39:48.084Z,2.50
2019-03-12T01:42:17.072Z,2.60
2019-03-12T01:44:46.472Z,2.50
2019-03-12T01:47:14.079Z,2.50
2019-03-12T01:49:42.172Z,2.60
2019-03-12T01:52:09.759Z,2.60
2019-03-12T01:54:37.381Z,2.60
2019-03-12T01:57:04.768Z,2.60
2019-03-12T01:59:32.461Z,2.60
2019-03-12T02:02:01.838Z,2.60
2019-03-12T02:04:29.753Z,2.70
2019-03-12T02:07:05.352Z,2.60
2019-03-12T02:09:32.965Z,2.70
2019-03-12T02:12:01.585Z,2.70
2019-03-12T02:14:29.891Z,2.80
2019-03-12T02:16:58.184Z,2.80
2019-03-12T02:19:25.838Z,2.80
2019-03-12T02:21:53.354Z,2.90
2019-03-12T02:24:23.199Z,2.90
2019-03-12T02:26:50.653Z,2.90
2019-03-12T02:29:17.843Z,2.90
2019-03-12T02:31:45.418Z,2.90
2019-03-12T02:34:15.423Z,2.90
2019-03-12T02:36:43.384Z,2.80
2019-03-12T02:39:10.680Z,2.80
2019-03-12T02:41:38.329Z,2.80
2019-03-12T02:44:06.065Z,2.80
2019-03-12T02:46:33.493Z,2.80
2019-03-12T02:49:01.135Z,2.70
2019-03-12T02:51:28.801Z,2.80
2019-03-12T02:53:56.856Z,2.70
2019-03-12T02:56:24.505Z,2.80
2019-03-12T02:58:52.294Z,2.80
2019-03-12T03:01:20.707Z,2.80
2019-03-12T03:03:48.161Z,2.90
2019-03-12T03:06:22.674Z,3.00
2019-03-12T03:08:50.630Z,3.10
2019-03-12T03:11:18.436Z,3.20
2019-03-12T03:13:46.616Z,3.20
2019-03-12T03:16:14.588Z,3.20
2019-03-12T03:18:44.447Z,3.30
2019-03-12T03:21:11.646Z,3.30
2019-03-12T03:23:39.232Z,3.30
2019-03-12T03:26:06.802Z,3.30
2019-03-12T03:28:34.334Z,3.30
2019-03-12T03:31:02.004Z,3.30
2019-03-12T03:33:29.704Z,3.30
2019-03-12T03:35:57.445Z,3.20
2019-03-12T03:38:25.865Z,3.20
2019-03-12T03:40:53.490Z,3.10
2019-03-12T03:43:21.102Z,3.10
2019-03-12T03:45:48.682Z,3.00
2019-03-12T03:48:16.066Z,3.00
2019-03-12T03:50:43.772Z,3.00
2019-03-12T03:53:11.022Z,2.90
2019-03-12T03:55:38.698Z,2.90
2019-03-12T03:58:06.371Z,2.90
2019-03-12T04:00:34.119Z,2.90
2019-03-12T04:03:01.847Z,2.80
2019-03-12T04:05:29.432Z,2.80
2019-03-12T04:07:56.616Z,2.80
2019-03-12T04:10:24.089Z,2.70
2019-03-12T04:12:51.603Z,2.80
2019-03-12T04:15:20.259Z,2.80
2019-03-12T04:17:47.956Z,2.70
2019-03-12T04:20:17.219Z,2.80
2019-03-12T04:22:48.048Z,2.70
2019-03-12T04:25:15.426Z,2.70
2019-03-12T04:27:43.135Z,2.80
2019-03-12T04:30:14.207Z,2.80
2019-03-12T04:32:43.642Z,2.80
2019-03-12T04:35:12.827Z,2.70
2019-03-12T04:37:40.563Z,2.70
2019-03-12T04:40:10.233Z,2.70
2019-03-12T04:42:37.846Z,2.70
2019-03-12T04:45:06.310Z,2.60
2019-03-12T04:47:33.871Z,2.60
2019-03-12T04:50:03.156Z,2.60
2019-03-12T04:52:32.589Z,2.60
2019-03-12T04:55:00.375Z,2.50
2019-03-12T04:57:28.018Z,2.60
2019-03-12T04:59:55.949Z,2.50
2019-03-12T05:02:23.655Z,2.50
2019-03-12T05:04:51.557Z,2.50
2019-03-12T05:07:19.347Z,2.50
2019-03-12T05:09:47.108Z,2.50
2019-03-12T05:12:16.648Z,2.50
2019-03-12T05:14:46.221Z,2.50
2019-03-12T05:17:21.312Z,2.40
2019-03-12T05:19:49.048Z,2.40
2019-03-12T05:22:18.179Z,2.50
2019-03-12T05:24:45.905Z,2.50
2019-03-12T05:27:14.530Z,2.50
2019-03-12T05:29:46.579Z,2.50
2019-03-12T05:32:15.105Z,2.40
2019-03-12T05:34:53.278Z,2.40
2019-03-12T05:37:21.479Z,2.40
2019-03-12T05:39:49.548Z,2.50
2019-03-12T05:42:18.237Z,2.50
2019-03-12T05:44:46.994Z,2.50
2019-03-12T05:47:15.142Z,2.40
2019-03-12T05:49:46.372Z,2.50
2019-03-12T05:52:17.908Z,2.50
2019-03-12T05:54:46.845Z,2.50
2019-03-12T05:57:15.914Z,2.60
2019-03-12T05:59:45.939Z,2.60
2019-03-12T06:29:09.683Z,2.70
2019-03-12T06:32:35.489Z,2.80
2019-03-12T06:39:13.593Z,2.80
2019-03-12T06:42:58.358Z,2.80
2019-03-12T06:49:08.531Z,2.80
2019-03-12T06:52:08.323Z,2.80
2019-03-12T06:55:20.554Z,2.80
2019-03-12T07:02:02.150Z,2.80
2019-03-12T07:05:31.692Z,2.90
2019-03-12T07:09:14.041Z,2.90
2019-03-12T07:11:40.313Z,3.00
2019-03-12T07:14:43.099Z,3.10
2019-03-12T07:18:03.810Z,3.20
2019-03-12T07:21:03.821Z,3.40
2019-03-12T07:23:59.626Z,3.40
2019-03-12T07:26:44.413Z,3.60
2019-03-12T07:29:38.722Z,3.70
2019-03-12T07:35:52.308Z,4.20
2019-03-12T07:38:40.963Z,4.10
2019-03-12T07:41:40.419Z,4.00
2019-03-12T07:44:15.172Z,4.00
2019-03-12T07:47:12.358Z,4.10
2019-03-12T07:50:02.969Z,4.20
2019-03-12T07:53:01.847Z,4.30
2019-03-12T07:55:59.257Z,4.60
2019-03-12T07:58:38.588Z,4.60
2019-03-12T08:01:31.071Z,4.50
2019-03-12T08:04:45.403Z,4.40
2019-03-12T08:07:02.243Z,4.50
2019-03-12T08:09:50.735Z,4.40
2019-03-12T08:12:55.297Z,4.50
2019-03-12T08:15:37.543Z,4.60
2019-03-12T08:18:29.065Z,4.80
2019-03-12T08:21:22.901Z,5.00
2019-03-12T08:24:02.914Z,5.60
2019-03-12T08:26:54.555Z,6.10
2019-03-12T08:29:45.913Z,6.30
2019-03-12T08:32:23.949Z,6.20
2019-03-12T08:35:12.728Z,6.10
2019-03-12T08:38:10.801Z,6.00
2019-03-12T08:40:52.366Z,6.00
2019-03-12T08:44:13.301Z,5.90
2019-03-12T08:47:22.356Z,5.60
2019-03-12T08:50:10.613Z,5.50
2019-03-12T08:53:10.572Z,5.60
2019-03-12T08:56:22.826Z,5.60
2019-03-12T08:59:11.086Z,5.60
2019-03-12T09:02:25.197Z,5.60
2019-03-12T09:05:11.973Z,5.40
2019-03-12T09:08:05.444Z,5.40
2019-03-12T09:10:52.295Z,5.40
2019-03-12T09:13:52.411Z,5.40
2019-03-12T09:16:35.668Z,5.50
2019-03-12T09:19:25.970Z,5.50
2019-03-12T09:22:14.812Z,5.50
2019-03-12T09:25:17.485Z,5.50
2019-03-12T09:28:15.633Z,5.60
2019-03-12T09:31:26.036Z,5.60
2019-03-12T09:34:04.848Z,5.80
2019-03-12T09:36:55.320Z,5.90
2019-03-12T09:39:53.198Z,6.00
2019-03-12T09:42:38.821Z,6.20
2019-03-12T09:45:25.696Z,6.30
2019-03-12T09:48:19.560Z,6.40
2019-03-12T09:51:12.647Z,6.60
2019-03-12T09:53:56.177Z,6.70
2019-03-12T09:56:50.311Z,6.70
2019-03-12T09:59:43.412Z,6.50
2019-03-12T10:02:24.866Z,6.50
2019-03-12T10:05:05.319Z,6.50
2019-03-12T10:07:51.984Z,6.60
2019-03-12T10:10:59.406Z,6.50
2019-03-12T10:13:50.563Z,6.50
2019-03-12T10:16:36.831Z,6.50
2019-03-12T10:19:33.592Z,6.50
2019-03-12T10:22:55.603Z,6.40
2019-03-12T10:25:51.863Z,6.30
2019-03-12T10:28:47.004Z,6.10
2019-03-12T10:31:33.172Z,6.30
2019-03-12T10:34:29.640Z,6.30
2019-03-12T10:37:17.792Z,6.40
2019-03-12T10:40:19.036Z,6.40
2019-03-12T10:43:29.304Z,6.30
2019-03-12T10:46:19.125Z,6.30
2019-03-12T10:48:48.282Z,6.20
2019-03-12T10:51:16.912Z,6.10
2019-03-12T10:53:44.828Z,5.90
2019-03-12T10:56:13.565Z,5.90
2019-03-12T10:58:41.918Z,5.90
2019-03-12T11:01:09.737Z,5.90
2019-03-12T11:03:37.814Z,5.80
2019-03-12T11:06:17.081Z,5.80
2019-03-12T11:08:45.588Z,5.70
2019-03-12T11:11:13.609Z,5.90
2019-03-12T11:13:41.223Z,5.90
2019-03-12T11:16:09.457Z,5.90
2019-03-12T11:18:37.596Z,5.90
2019-03-12T11:21:06.225Z,5.90
2019-03-12T11:23:34.641Z,6.00
2019-03-12T11:26:04.281Z,6.00
2019-03-12T11:28:32.443Z,6.10
2019-03-12T11:31:00.454Z,6.10
2019-03-12T11:33:29.078Z,6.20
2019-03-12T11:35:57.107Z,6.20
2019-03-12T11:38:25.213Z,6.20
2019-03-12T11:40:53.168Z,6.20
2019-03-12T11:43:20.915Z,6.30
2019-03-12T11:45:49.058Z,6.40
2019-03-12T11:48:16.773Z,6.30
2019-03-12T11:50:44.508Z,6.30
2019-03-12T11:53:12.859Z,6.40
2019-03-12T11:55:40.964Z,6.40
2019-03-12T11:58:09.129Z,6.50
2019-03-12T12:00:41.997Z,6.40
2019-03-12T12:03:10.635Z,6.40
2019-03-12T12:05:38.637Z,6.50
2019-03-12T12:08:06.626Z,6.60
2019-03-12T12:10:34.670Z,6.70
2019-03-12T12:13:02.445Z,6.70
2019-03-12T12:15:31.063Z,6.70
2019-03-12T12:17:58.980Z,6.80
2019-03-12T12:20:30.022Z,6.80
2019-03-12T12:22:56.738Z,6.80
2019-03-12T12:25:24.723Z,6.90
2019-03-12T12:27:52.668Z,6.90
2019-03-12T12:30:20.725Z,6.90
2019-03-12T12:32:48.559Z,6.90
2019-03-12T12:35:16.773Z,6.90
2019-03-12T12:37:44.713Z,6.90
2019-03-12T12:40:13.936Z,7.00
2019-03-12T12:42:41.729Z,7.00
2019-03-12T12:45:13.845Z,7.10
2019-03-12T12:47:41.883Z,7.10
2019-03-12T12:50:10.063Z,7.10
2019-03-12T12:52:40.766Z,7.20
2019-03-12T12:55:10.332Z,7.20
2019-03-12T12:57:50.976Z,7.20
2019-03-12T13:00:19.628Z,7.30
2019-03-12T13:02:48.281Z,7.40
2019-03-12T13:05:19.247Z,7.50
2019-03-12T13:07:47.533Z,7.50
2019-03-12T13:10:20.371Z,7.60
2019-03-12T13:12:48.738Z,7.60
2019-03-12T13:15:16.465Z,7.50
2019-03-12T13:17:45.633Z,7.60
2019-03-12T13:20:13.561Z,7.70
2019-03-12T13:22:41.471Z,7.70
2019-03-12T13:25:09.853Z,7.80
2019-03-12T13:27:42.574Z,7.80
2019-03-12T13:30:09.431Z,7.80
2019-03-12T13:32:40.555Z,7.80
2019-03-12T13:35:08.854Z,7.90
2019-03-12T13:37:40.576Z,7.90
2019-03-12T13:40:09.511Z,7.90
2019-03-12T13:42:37.345Z,7.90
2019-03-12T13:45:05.620Z,7.90
2019-03-12T13:47:33.233Z,7.90
2019-03-12T13:50:01.775Z,8.00
2019-03-12T13:52:31.354Z,8.00
2019-03-12T13:55:00.598Z,8.00
2019-03-12T13:57:29.214Z,8.00
2019-03-12T13:59:56.863Z,8.00
2019-03-12T14:02:24.760Z,7.90
2019-03-12T14:04:52.903Z,7.90
2019-03-12T14:07:20.895Z,8.00
2019-03-12T14:09:52.089Z,7.90
2019-03-12T14:12:20.114Z,7.90
2019-03-12T14:14:50.272Z,7.90
2019-03-12T14:17:20.555Z,7.90
2019-03-12T14:19:48.373Z,7.90
2019-03-12T14:22:21.724Z,7.80
2019-03-12T14:24:51.750Z,7.80
2019-03-12T14:27:36.075Z,7.90
2019-03-12T14:30:05.781Z,8.00
2019-03-12T14:32:33.526Z,8.00
2019-03-12T14:35:02.032Z,8.00
2019-03-12T14:37:30.167Z,8.00
2019-03-12T14:39:58.138Z,8.00
2019-03-12T14:42:26.068Z,8.00
2019-03-12T14:44:53.699Z,7.90
2019-03-12T14:47:42.877Z,7.90
2019-03-12T14:50:14.472Z,7.90
2019-03-12T14:52:47.782Z,7.90
2019-03-12T14:55:16.270Z,7.90
2019-03-12T14:57:44.463Z,7.90
2019-03-12T15:00:19.385Z,7.90
2019-03-12T15:02:52.064Z,7.90
2019-03-12T15:05:28.691Z,7.80
2019-03-12T15:14:33.702Z,7.60
2019-03-12T15:17:07.409Z,7.70
2019-03-12T15:21:06.813Z,7.70
2019-03-12T15:23:15.502Z,7.70
2019-03-12T15:25:46.101Z,7.60
2019-03-12T15:28:26.593Z,7.60
2019-03-12T15:30:56.767Z,7.50
2019-03-12T15:33:27.820Z,7.50
2019-03-12T15:35:56.576Z,7.50
2019-03-12T15:38:29.085Z,7.60
2019-03-12T15:40:57.562Z,7.60
2019-03-12T15:43:26.672Z,7.60
2019-03-12T15:45:54.532Z,7.60
2019-03-12T15:48:25.190Z,7.60
2019-03-12T15:50:54.201Z,7.70
2019-03-12T15:53:22.091Z,7.60
2019-03-12T15:55:50.723Z,7.70
2019-03-12T15:58:19.659Z,7.70
2019-03-12T16:00:51.240Z,7.70
2019-03-12T16:03:21.880Z,7.80
2019-03-12T16:05:49.750Z,7.70
2019-03-12T16:08:17.563Z,7.80
2019-03-12T16:10:58.470Z,7.80
2019-03-12T16:13:27.902Z,7.70
2019-03-12T16:15:58.784Z,7.70
2019-03-12T16:18:26.697Z,7.70
2019-03-12T16:20:54.874Z,7.70
2019-03-12T16:23:22.720Z,7.70
2019-03-12T16:25:51.205Z,7.70
2019-03-12T16:28:22.291Z,7.70
2019-03-12T16:30:50.729Z,7.70
2019-03-12T16:33:18.758Z,7.70
2019-03-12T16:35:55.756Z,7.70
2019-03-12T16:38:27.515Z,7.70
2019-03-12T16:40:55.705Z,7.70
2019-03-12T16:43:31.772Z,7.70
2019-03-12T16:45:59.863Z,7.70
2019-03-12T16:57:30.885Z,7.70
2019-03-12T16:59:57.350Z,7.70
2019-03-12T17:02:28.489Z,7.70
2019-03-12T17:04:56.616Z,7.70
2019-03-12T17:07:24.673Z,7.70
2019-03-12T17:09:53.072Z,7.60
2019-03-12T17:12:44.963Z,7.60
2019-03-12T17:15:13.323Z,7.60
2019-03-12T17:17:41.182Z,7.60
2019-03-12T17:26:29.188Z,7.20
2019-03-12T17:28:57.126Z,7.10
2019-03-12T17:31:25.005Z,7.10
2019-03-12T17:33:52.915Z,7.10
2019-03-12T17:36:20.736Z,7.10
2019-03-12T17:38:48.673Z,7.20
2019-03-12T17:41:16.324Z,7.20
2019-03-12T17:43:43.998Z,7.10
2019-03-12T17:46:12.044Z,7.20
2019-03-12T17:48:39.806Z,7.20
2019-03-12T17:51:08.352Z,7.30
2019-03-12T17:53:36.267Z,7.30
2019-03-12T17:56:03.880Z,7.30
2019-03-12T17:58:34.656Z,7.30
2019-03-12T18:01:02.305Z,7.30
2019-03-12T18:03:30.583Z,7.30
2019-03-12T18:05:58.756Z,7.30
2019-03-12T18:08:33.799Z,7.30
2019-03-12T18:11:01.951Z,7.30
2019-03-12T18:13:30.684Z,7.30
2019-03-12T18:15:58.461Z,7.20
2019-03-12T18:18:26.542Z,7.20
2019-03-12T18:20:54.558Z,7.10
2019-03-12T18:23:22.466Z,7.10
2019-03-12T18:25:49.976Z,7.10
2019-03-12T18:28:19.722Z,7.10
2019-03-12T18:30:48.294Z,7.10
2019-03-12T18:33:17.043Z,7.10
2019-03-12T18:35:45.531Z,7.10
2019-03-12T18:45:13.417Z,7.10
2019-03-12T18:47:46.689Z,7.10
2019-03-12T18:50:39.865Z,7.20
2019-03-12T18:53:14.414Z,7.20
2019-03-12T18:55:57.066Z,7.10
2019-03-12T18:58:28.743Z,7.10
2019-03-12T19:00:58.349Z,7.20
2019-03-12T19:03:26.907Z,7.30
2019-03-12T19:05:54.546Z,7.30
2019-03-12T19:08:22.365Z,7.30
2019-03-12T19:10:50.296Z,7.20
2019-03-12T19:13:18.182Z,7.20
2019-03-12T19:15:48.413Z,7.20
2019-03-12T19:18:16.101Z,7.20
2019-03-12T19:20:43.893Z,7.20
2019-03-12T19:23:12.176Z,7.10
2019-03-12T19:25:40.415Z,7.10
2019-03-12T19:28:08.331Z,7.10
2019-03-12T19:30:36.267Z,7.10
2019-03-12T19:33:06.709Z,7.10
2019-03-12T19:35:34.527Z,7.00
2019-03-12T19:38:02.372Z,6.90
2019-03-12T19:40:30.498Z,6.90
2019-03-12T19:43:12.900Z,6.90
2019-03-12T19:45:41.911Z,6.90
2019-03-12T19:48:14.868Z,7.00
2019-03-12T19:50:45.111Z,7.00
2019-03-12T19:53:13.462Z,7.00
2019-03-12T19:59:09.124Z,7.10
2019-03-12T20:02:15.634Z,7.10
2019-03-12T20:05:02.284Z,7.20
2019-03-12T20:07:30.601Z,7.20
2019-03-12T20:14:28.010Z,7.20
2019-03-12T20:17:39.495Z,7.20
2019-03-12T20:21:03.926Z,7.20
2019-03-12T20:24:28.466Z,7.20
2019-03-12T20:27:31.935Z,7.10
2019-03-12T20:30:42.449Z,7.10
2019-03-12T20:44:04.815Z,7.20
2019-03-12T20:57:30.208Z,7.00
2019-03-12T21:00:36.592Z,7.00
2019-03-12T21:03:32.910Z,7.10
2019-03-12T21:06:46.165Z,7.20
2019-03-12T21:09:59.420Z,7.40
2019-03-12T21:13:37.913Z,7.40
2019-03-12T21:16:46.404Z,7.40
2019-03-12T21:20:13.586Z,7.50
2019-03-12T21:26:36.248Z,7.70
2019-03-12T21:29:41.067Z,7.70
2019-03-12T21:32:08.948Z,7.70
2019-03-12T21:34:36.506Z,7.60
2019-03-12T21:37:04.176Z,7.50
2019-03-12T21:39:32.423Z,7.50
2019-03-12T21:42:00.524Z,7.50
2019-03-12T21:44:29.179Z,7.50
2019-03-12T21:46:56.803Z,7.60
2019-03-12T21:49:24.936Z,7.60
2019-03-12T21:51:52.731Z,7.60
2019-03-12T21:54:20.907Z,7.60
2019-03-12T21:56:48.528Z,7.60
2019-03-12T21:59:16.380Z,7.60
2019-03-12T22:01:43.995Z,7.60
2019-03-12T22:04:11.806Z,7.60
2019-03-12T22:06:41.148Z,7.60
2019-03-12T22:09:08.896Z,7.60
2019-03-12T22:11:37.729Z,7.50
2019-03-12T22:14:05.522Z,7.40
2019-03-12T22:16:32.923Z,7.30
2019-03-12T22:19:00.488Z,7.30
2019-03-12T22:21:36.658Z,7.20
2019-03-12T22:24:06.226Z,7.20
2019-03-12T22:26:35.014Z,7.20
2019-03-12T22:29:02.925Z,7.20
2019-03-12T22:31:30.983Z,7.20
2019-03-12T22:33:58.894Z,7.20
2019-03-12T22:36:27.122Z,7.10
2019-03-12T22:38:55.053Z,7.00
2019-03-12T22:41:22.849Z,6.90
2019-03-12T22:43:50.479Z,6.80
2019-03-12T22:46:18.983Z,6.70
2019-03-12T22:48:46.602Z,6.60
2019-03-12T22:51:14.450Z,6.60
2019-03-12T22:53:42.046Z,6.60
2019-03-12T22:56:10.118Z,6.60
2019-03-12T22:58:37.846Z,6.60
2019-03-12T23:01:05.405Z,6.70
2019-03-12T23:03:33.240Z,6.80
2019-03-12T23:06:00.985Z,6.70
2019-03-12T23:08:28.580Z,6.70
2019-03-12T23:10:56.517Z,6.80
2019-03-12T23:13:26.977Z,6.80
2019-03-12T23:15:55.717Z,6.80
2019-03-12T23:18:23.320Z,6.80
2019-03-12T23:20:51.459Z,6.90
2019-03-12T23:23:19.632Z,6.90
2019-03-12T23:25:47.401Z,6.90
2019-03-12T23:28:15.516Z,6.90
2019-03-12T23:30:45.313Z,7.00
2019-03-12T23:33:13.527Z,7.00
2019-03-12T23:35:43.356Z,7.00
2019-03-12T23:38:11.259Z,7.00
2019-03-12T23:40:38.982Z,7.00
2019-03-12T23:43:08.511Z,7.10
2019-03-12T23:45:36.359Z,7.10
2019-03-12T23:48:11.629Z,7.00
2019-03-12T23:50:39.449Z,6.60
2019-03-12T23:53:07.179Z,5.90
2019-03-12T23:55:34.816Z,5.50
2019-03-12T23:58:02.986Z,5.20
